Simpsonville, South Carolina
Current Conditions -  °F | °C
As of 2:47 PM on Saturday 25 Oct 2014 (Local Time) from KGYH Reporting Station
Clear Clear  
Wind Chill: 70°   Ceiling: Unl
Heat Index: 70°   Visibility: 10mi
Dew Point: 37°   Wind: 7mph
Humidity: 31%   Direction: 260°W
Pressure: 29.99"   Gusts: NA
Location:  34.74°N, 82.25°W
Report Text: KGYH 251847Z 26006KT 10SM CLR 21/03 A2999
Loading
Personal Weather Stations






























Interactive Weather Map
Tropical Storm Tracking
New forecast layout! Learn more

10-Day Weather Forecast

Advertisements
Track Severe Weather on mobile